createdAt,value
2018-07-11T00:01:55.762Z,15.07
2018-07-11T00:04:23.903Z,15.23
2018-07-11T00:06:52.044Z,12.87
2018-07-11T00:09:20.147Z,10.80
2018-07-11T00:11:48.275Z,10.30
2018-07-11T00:14:16.159Z,10.33
2018-07-11T00:16:49.663Z,10.30
2018-07-11T00:19:17.763Z,10.20
2018-07-11T00:21:45.893Z,10.63
2018-07-11T00:24:14.000Z,9.17
2018-07-11T00:26:42.115Z,10.20
2018-07-11T00:29:10.222Z,9.30
2018-07-11T00:31:38.339Z,8.63
2018-07-11T00:34:06.462Z,11.00
2018-07-11T00:36:34.572Z,9.50
2018-07-11T00:39:02.676Z,9.23
2018-07-11T00:41:30.792Z,9.23
2018-07-11T00:43:58.907Z,8.97
2018-07-11T00:46:27.020Z,9.63
2018-07-11T00:48:55.133Z,9.00
2018-07-11T00:51:23.251Z,9.40
2018-07-11T00:53:51.360Z,8.83
2018-07-11T00:56:19.468Z,9.60
2018-07-11T00:58:51.288Z,9.47
2018-07-11T01:01:20.283Z,11.37
2018-07-11T01:03:52.180Z,9.47
2018-07-11T01:06:20.386Z,9.23
2018-07-11T01:08:56.331Z,10.60
2018-07-11T01:11:25.100Z,9.13
2018-07-11T01:13:53.539Z,10.17
2018-07-11T01:16:23.009Z,11.67
2018-07-11T01:18:55.729Z,10.00
2018-07-11T01:21:23.947Z,9.63
2018-07-11T01:23:52.067Z,11.83
2018-07-11T01:26:23.880Z,10.73
2018-07-11T01:28:51.975Z,10.30
2018-07-11T01:31:20.100Z,9.63
2018-07-11T01:33:48.205Z,10.20
2018-07-11T01:36:16.169Z,9.30
2018-07-11T01:38:44.086Z,10.33
2018-07-11T01:41:12.331Z,9.73
2018-07-11T01:43:40.474Z,10.53
2018-07-11T01:46:08.615Z,10.77
2018-07-11T01:48:36.750Z,10.90
2018-07-11T01:51:04.995Z,10.63
2018-07-11T01:53:33.142Z,10.60
2018-07-11T01:56:01.262Z,10.13
2018-07-11T01:58:29.410Z,11.10
2018-07-11T02:00:57.541Z,9.63
2018-07-11T02:03:25.678Z,8.80
2018-07-11T02:05:53.688Z,10.57
2018-07-11T02:08:22.887Z,8.70
2018-07-11T02:10:51.251Z,9.20
2018-07-11T02:13:19.379Z,9.37
2018-07-11T02:15:48.672Z,9.63
2018-07-11T02:18:19.890Z,11.73
2018-07-11T02:20:48.028Z,9.73
2018-07-11T02:23:16.555Z,11.17
2018-07-11T02:25:44.670Z,9.47
2018-07-11T02:28:12.806Z,9.90
2018-07-11T02:30:41.143Z,10.97
2018-07-11T02:33:09.307Z,10.03
2018-07-11T02:35:37.431Z,11.83
2018-07-11T02:38:05.559Z,9.70
2018-07-11T02:40:33.688Z,10.27
2018-07-11T02:43:01.819Z,9.50
2018-07-11T02:45:29.972Z,10.17
2018-07-11T02:47:58.129Z,11.53
2018-07-11T02:50:26.022Z,10.53
2018-07-11T02:52:54.181Z,12.13
2018-07-11T02:55:22.295Z,9.77
2018-07-11T02:57:50.437Z,10.83
2018-07-11T03:00:18.566Z,9.97
2018-07-11T03:02:46.711Z,10.40
2018-07-11T03:05:14.838Z,10.00
2018-07-11T03:07:42.978Z,9.60
2018-07-11T03:10:11.111Z,9.13
2018-07-11T03:12:39.266Z,9.80
2018-07-11T03:15:07.402Z,13.10
2018-07-11T03:17:35.549Z,10.67
2018-07-11T03:20:03.701Z,10.07
2018-07-11T03:22:31.835Z,9.83
2018-07-11T03:24:59.798Z,10.03
2018-07-11T03:27:27.930Z,9.37
2018-07-11T03:29:56.059Z,10.27
2018-07-11T03:32:23.956Z,11.10
2018-07-11T03:34:52.097Z,10.87
2018-07-11T03:37:20.221Z,8.80
2018-07-11T03:39:48.354Z,8.90
2018-07-11T03:42:16.480Z,9.73
2018-07-11T03:44:44.633Z,11.00
2018-07-11T03:47:12.783Z,11.90
2018-07-11T03:49:40.919Z,12.53
2018-07-11T03:52:09.074Z,12.87
2018-07-11T03:54:37.219Z,14.20
2018-07-11T03:57:05.350Z,12.80
2018-07-11T03:59:33.487Z,11.60
2018-07-11T04:02:01.627Z,11.87
2018-07-11T04:04:29.767Z,12.67
2018-07-11T04:06:57.905Z,12.37
2018-07-11T04:09:26.055Z,12.13
2018-07-11T04:11:54.357Z,12.83
2018-07-11T04:14:22.495Z,13.07
2018-07-11T04:16:50.650Z,11.23
2018-07-11T04:19:18.804Z,13.17
2018-07-11T04:21:46.754Z,11.37
2018-07-11T04:24:14.903Z,11.17
2018-07-11T04:26:43.046Z,12.70
2018-07-11T04:29:11.183Z,10.60
2018-07-11T04:31:39.302Z,10.60
2018-07-11T04:34:07.548Z,10.03
2018-07-11T04:36:35.666Z,10.97
2018-07-11T04:39:04.598Z,11.47
2018-07-11T04:41:32.762Z,12.13
2018-07-11T04:44:00.904Z,13.03
2018-07-11T04:46:29.023Z,12.23
2018-07-11T04:48:57.112Z,13.83
2018-07-11T04:51:25.233Z,13.57
2018-07-11T04:53:54.410Z,14.53
2018-07-11T04:56:22.537Z,14.03
2018-07-11T04:58:50.702Z,15.33
2018-07-11T05:01:18.802Z,14.70
2018-07-11T05:03:46.946Z,14.97
2018-07-11T05:06:14.906Z,14.57
2018-07-11T05:08:43.039Z,14.77
2018-07-11T05:11:11.218Z,14.70
2018-07-11T05:13:39.306Z,15.40
2018-07-11T05:16:07.497Z,15.40
2018-07-11T05:18:35.591Z,17.00
2018-07-11T05:21:03.537Z,17.53
2018-07-11T05:23:31.686Z,17.87
2018-07-11T05:25:59.816Z,17.00
2018-07-11T05:28:27.934Z,15.53
2018-07-11T05:30:56.074Z,16.80
2018-07-11T05:33:24.216Z,15.13
2018-07-11T05:35:52.385Z,15.97
2018-07-11T05:38:20.504Z,14.37
2018-07-11T05:40:48.635Z,16.03
2018-07-11T05:43:16.774Z,15.23
2018-07-11T05:45:44.927Z,17.07
2018-07-11T05:48:13.069Z,16.07
2018-07-11T05:50:41.379Z,14.60
2018-07-11T05:53:09.586Z,15.60
2018-07-11T05:55:37.767Z,16.67
2018-07-11T05:58:05.959Z,15.73
2018-07-11T06:00:34.018Z,15.97
2018-07-11T06:03:02.279Z,17.57
2018-07-11T06:05:30.485Z,19.07
2018-07-11T06:07:58.552Z,18.70
2018-07-11T06:10:26.466Z,19.17
2018-07-11T06:12:54.602Z,19.40
2018-07-11T06:15:22.742Z,19.10
2018-07-11T06:17:50.870Z,19.87
2018-07-11T06:20:19.019Z,19.37
2018-07-11T06:22:47.138Z,21.63
2018-07-11T06:25:15.348Z,20.30
2018-07-11T06:27:43.303Z,19.60
2018-07-11T06:30:11.471Z,19.97
2018-07-11T06:32:39.621Z,20.47
2018-07-11T06:35:07.738Z,19.77
2018-07-11T06:37:35.858Z,18.03
2018-07-11T06:40:04.020Z,17.70
2018-07-11T06:42:32.158Z,17.83
2018-07-11T06:45:00.078Z,19.43
2018-07-11T06:47:29.713Z,20.70
2018-07-11T06:49:57.947Z,17.00
2018-07-11T06:52:26.072Z,17.53
2018-07-11T06:54:54.437Z,18.57
2018-07-11T06:57:22.607Z,17.37
2018-07-11T06:59:50.747Z,18.07
2018-07-11T07:02:18.894Z,17.90
2018-07-11T07:04:47.047Z,19.20
2018-07-11T07:07:14.942Z,19.90
2018-07-11T07:09:43.208Z,22.60
2018-07-11T07:12:11.331Z,20.50
2018-07-11T07:14:39.475Z,21.73
2018-07-11T07:17:07.596Z,20.63
2018-07-11T07:19:35.739Z,22.17
2018-07-11T07:22:03.875Z,21.53
2018-07-11T07:24:32.022Z,21.00
2018-07-11T07:27:00.184Z,21.77
2018-07-11T07:29:28.320Z,23.17
2018-07-11T07:31:56.471Z,21.70
2018-07-11T07:34:24.618Z,20.60
2018-07-11T07:36:52.784Z,20.00
2018-07-11T07:39:20.891Z,21.13
2018-07-11T07:41:49.083Z,19.70
2018-07-11T07:44:17.214Z,20.83
2018-07-11T07:46:50.745Z,20.63
2018-07-11T07:49:18.875Z,21.93
2018-07-11T07:51:47.277Z,20.93
2018-07-11T07:54:15.179Z,21.67
2018-07-11T07:56:43.802Z,21.53
2018-07-11T07:59:11.936Z,20.90
2018-07-11T08:01:40.063Z,20.77
2018-07-11T08:04:07.974Z,20.30
2018-07-11T08:06:36.138Z,19.30
2018-07-11T08:09:04.658Z,19.13
2018-07-11T08:11:32.805Z,20.60
2018-07-11T08:14:00.930Z,18.43
2018-07-11T08:16:28.883Z,18.77
2018-07-11T08:18:57.010Z,18.33
2018-07-11T08:21:25.166Z,18.23
2018-07-11T08:24:04.800Z,18.07
2018-07-11T08:26:44.573Z,16.47
2018-07-11T08:31:38.190Z,16.30
2018-07-11T08:34:17.807Z,17.83
2018-07-11T08:36:58.486Z,16.80
2018-07-11T08:40:39.215Z,17.63
2018-07-11T08:43:18.899Z,16.57
2018-07-11T08:45:56.855Z,17.03
2018-07-11T08:48:36.119Z,18.30
2018-07-11T08:55:24.051Z,17.53
2018-07-11T08:58:46.571Z,17.13
2018-07-11T09:03:35.774Z,17.13
2018-07-11T09:06:29.595Z,15.40
2018-07-11T09:12:14.790Z,14.77
2018-07-11T09:15:27.967Z,15.03
2018-07-11T09:18:01.512Z,15.97
2018-07-11T09:22:40.156Z,15.13
2018-07-11T09:25:08.305Z,15.20
2018-07-11T09:27:36.472Z,13.43
2018-07-11T09:30:04.614Z,13.73
2018-07-11T09:32:32.528Z,14.77
2018-07-11T09:35:00.655Z,15.20
2018-07-11T09:37:28.745Z,14.20
2018-07-11T09:39:56.878Z,15.07
2018-07-11T09:42:25.046Z,14.30
2018-07-11T09:44:53.168Z,16.70
2018-07-11T09:47:27.967Z,15.00
2018-07-11T09:49:55.870Z,14.93
2018-07-11T09:52:24.101Z,14.80
2018-07-11T09:54:52.472Z,15.43
2018-07-11T09:57:20.764Z,16.27
2018-07-11T09:59:48.706Z,16.77
2018-07-11T10:02:16.894Z,14.53
2018-07-11T10:04:45.031Z,16.67
2018-07-11T10:07:13.554Z,15.40
2018-07-11T10:09:41.826Z,20.47
2018-07-11T10:12:10.032Z,15.47
2018-07-11T10:14:38.198Z,14.67
2018-07-11T10:17:06.343Z,11.00
2018-07-11T10:19:34.479Z,14.43
2018-07-11T10:22:02.618Z,11.60
2018-07-11T10:24:30.781Z,13.60
2018-07-11T10:26:58.909Z,12.13
2018-07-11T10:29:27.323Z,12.77
2018-07-11T10:31:55.414Z,11.53
2018-07-11T10:34:23.554Z,11.77
2018-07-11T10:36:51.692Z,11.67
2018-07-11T10:39:19.817Z,11.53
2018-07-11T10:41:47.790Z,15.73
2018-07-11T10:44:15.920Z,10.00
2018-07-11T10:46:44.119Z,11.47
2018-07-11T10:49:12.259Z,11.20
2018-07-11T10:51:40.399Z,10.97
2018-07-11T10:54:08.578Z,14.33
2018-07-11T10:56:36.718Z,12.80
2018-07-11T10:59:04.853Z,10.67
2018-07-11T11:01:33.115Z,7.20
2018-07-11T11:04:01.194Z,7.80
2018-07-11T11:06:29.322Z,6.87
2018-07-11T11:08:57.450Z,12.17
2018-07-11T11:11:25.563Z,9.33
2018-07-11T11:13:53.634Z,8.03
2018-07-11T11:16:21.759Z,7.90
2018-07-11T11:18:49.891Z,9.97
2018-07-11T11:21:18.055Z,6.00
2018-07-11T11:23:45.942Z,7.73
2018-07-11T11:26:14.063Z,8.00
2018-07-11T11:28:42.199Z,9.57
2018-07-11T11:31:10.325Z,6.63
2018-07-11T11:33:38.456Z,7.33
2018-07-11T11:36:06.593Z,7.27
2018-07-11T11:38:34.730Z,9.77
2018-07-11T11:41:02.866Z,8.07
2018-07-11T11:43:31.028Z,7.33
2018-07-11T11:45:59.173Z,6.73
2018-07-11T11:48:27.317Z,5.77
2018-07-11T11:50:55.467Z,7.67
2018-07-11T11:53:23.602Z,10.40
2018-07-11T11:55:51.497Z,7.57
2018-07-11T11:58:19.638Z,7.17
2018-07-11T12:00:47.586Z,7.13
2018-07-11T12:03:15.721Z,6.97
2018-07-11T12:05:43.860Z,6.83
2018-07-11T12:08:11.818Z,8.33
2018-07-11T12:10:39.771Z,8.63
2018-07-11T12:13:08.004Z,8.57
2018-07-11T12:15:36.098Z,8.30
2018-07-11T12:18:04.373Z,11.17
2018-07-11T12:20:32.498Z,8.57
2018-07-11T12:23:00.628Z,10.63
2018-07-11T12:25:28.743Z,9.47
2018-07-11T12:27:56.878Z,10.50
2018-07-11T12:30:25.023Z,8.27
2018-07-11T12:32:53.176Z,9.17
2018-07-11T12:35:21.293Z,9.93
2018-07-11T12:37:49.480Z,7.10
2018-07-11T12:40:17.626Z,7.67
2018-07-11T12:42:45.770Z,11.23
2018-07-11T12:45:13.918Z,8.50
2018-07-11T12:47:47.450Z,6.73
2018-07-11T12:50:15.583Z,8.30
2018-07-11T12:52:43.486Z,9.10
2018-07-11T12:55:11.631Z,7.27
2018-07-11T12:57:39.605Z,9.57
2018-07-11T13:00:07.742Z,7.83
2018-07-11T13:02:35.874Z,7.77
2018-07-11T13:05:04.002Z,5.40
2018-07-11T13:07:32.134Z,8.23
2018-07-11T13:10:00.454Z,5.57
2018-07-11T13:12:28.577Z,6.27
2018-07-11T13:14:56.710Z,6.93
2018-07-11T13:17:24.590Z,7.90
2018-07-11T13:19:52.718Z,5.50
2018-07-11T13:22:20.846Z,5.00
2018-07-11T13:24:49.000Z,7.13
2018-07-11T13:27:17.131Z,7.23
2018-07-11T13:29:45.291Z,5.30
2018-07-11T13:32:13.411Z,7.57
2018-07-11T13:34:41.316Z,5.57
2018-07-11T13:37:09.450Z,6.07
2018-07-11T13:39:37.414Z,6.10
2018-07-11T13:42:05.322Z,6.77
2018-07-11T13:44:33.451Z,4.30
2018-07-11T13:47:05.802Z,5.50
2018-07-11T13:49:33.960Z,4.53
2018-07-11T13:52:02.272Z,6.23
2018-07-11T13:54:30.426Z,4.47
2018-07-11T13:56:58.547Z,5.50
2018-07-11T13:59:26.690Z,6.60
2018-07-11T14:01:54.863Z,6.17
2018-07-11T14:04:23.090Z,6.00
2018-07-11T14:06:51.197Z,5.90
2018-07-11T14:09:19.342Z,4.33
2018-07-11T14:11:47.475Z,8.37
2018-07-11T14:14:15.405Z,6.97
2018-07-11T14:16:43.537Z,5.50
2018-07-11T14:19:11.674Z,5.27
2018-07-11T14:21:39.803Z,6.23
2018-07-11T14:24:07.935Z,4.20
2018-07-11T14:26:36.062Z,4.30
2018-07-11T14:29:04.276Z,4.87
2018-07-11T14:31:34.287Z,5.70
2018-07-11T14:34:04.730Z,6.13
2018-07-11T14:36:33.270Z,7.73
2018-07-11T14:39:01.623Z,6.10
2018-07-11T14:41:29.837Z,6.37
2018-07-11T14:43:58.302Z,4.53
2018-07-11T14:46:28.121Z,5.43
2018-07-11T14:48:56.282Z,6.50
2018-07-11T14:51:24.805Z,7.47
2018-07-11T14:53:54.285Z,4.20
2018-07-11T14:56:22.480Z,5.23
2018-07-11T14:58:51.291Z,7.43
2018-07-11T15:01:19.478Z,8.40
2018-07-11T15:03:47.636Z,6.00
2018-07-11T15:06:15.777Z,10.07
2018-07-11T15:08:44.059Z,7.13
2018-07-11T15:11:12.369Z,4.07
2018-07-11T15:13:40.608Z,5.77
2018-07-11T15:16:08.565Z,7.13
2018-07-11T15:18:36.710Z,6.20
2018-07-11T15:21:05.207Z,7.03
2018-07-11T15:23:33.448Z,4.87
2018-07-11T15:26:01.595Z,5.73
2018-07-11T15:28:29.730Z,5.47
2018-07-11T15:30:57.996Z,5.80
2018-07-11T15:33:26.210Z,6.57
2018-07-11T15:35:54.507Z,7.00
2018-07-11T15:38:22.643Z,7.00
2018-07-11T15:40:51.249Z,4.87
2018-07-11T15:43:19.392Z,12.10
2018-07-11T15:45:47.529Z,5.93
2018-07-11T15:48:15.655Z,5.87
2018-07-11T15:50:43.810Z,6.77
2018-07-11T15:53:11.942Z,6.97
2018-07-11T15:55:40.117Z,5.47
2018-07-11T15:58:12.944Z,7.23
2018-07-11T16:00:42.251Z,3.77
2018-07-11T16:03:11.832Z,4.23
2018-07-11T16:05:41.857Z,6.83
2018-07-11T16:08:09.906Z,6.67
2018-07-11T16:10:47.337Z,8.03
2018-07-11T16:13:15.463Z,9.33
2018-07-11T16:15:45.015Z,10.60
2018-07-11T16:18:13.150Z,7.90
2018-07-11T16:20:41.291Z,8.07
2018-07-11T16:23:09.941Z,9.27
2018-07-11T16:25:39.231Z,10.93
2018-07-11T16:28:07.364Z,8.37
2018-07-11T16:30:36.052Z,11.70
2018-07-11T16:33:04.264Z,7.70
2018-07-11T16:35:32.751Z,10.90
2018-07-11T16:38:01.328Z,8.53
2018-07-11T16:40:30.329Z,10.53
2018-07-11T16:42:58.474Z,10.40
2018-07-11T16:45:26.658Z,8.23
2018-07-11T16:47:55.354Z,9.37
2018-07-11T16:50:24.136Z,10.97
2018-07-11T16:52:52.583Z,9.93
2018-07-11T16:55:20.727Z,10.13
2018-07-11T16:57:50.299Z,12.77
2018-07-11T17:00:21.711Z,10.10
2018-07-11T17:03:04.247Z,12.53
2018-07-11T17:05:37.966Z,12.73
2018-07-11T17:08:06.367Z,10.03
2018-07-11T17:10:35.384Z,10.27
2018-07-11T17:13:13.132Z,10.97
2018-07-11T17:15:46.127Z,10.80
2018-07-11T17:18:21.350Z,11.87
2018-07-11T17:20:49.514Z,11.73
2018-07-11T17:23:17.648Z,11.70
2018-07-11T17:25:45.803Z,9.40
2018-07-11T17:28:13.810Z,13.67
2018-07-11T17:30:43.912Z,11.97
2018-07-11T17:33:13.066Z,14.97
2018-07-11T17:35:50.377Z,11.63
2018-07-11T17:38:22.750Z,11.23
2018-07-11T17:40:50.891Z,8.30
2018-07-11T17:43:19.914Z,9.50
2018-07-11T17:45:49.518Z,14.80
2018-07-11T17:48:19.129Z,11.80
2018-07-11T17:50:47.341Z,11.33
2018-07-11T17:53:21.115Z,13.70
2018-07-11T17:55:53.565Z,11.17
2018-07-11T17:58:31.137Z,11.83
2018-07-11T18:01:03.922Z,12.90
2018-07-11T18:03:41.228Z,10.17
2018-07-11T18:06:47.422Z,13.07
2018-07-11T18:09:15.322Z,9.73
2018-07-11T18:11:51.438Z,13.07
2018-07-11T18:14:24.827Z,14.50
2018-07-11T18:16:58.446Z,11.93
2018-07-11T18:19:38.026Z,12.73
2018-07-11T18:22:19.610Z,14.70
2018-07-11T18:24:55.807Z,15.57
2018-07-11T18:27:34.347Z,13.47
2018-07-11T18:30:13.424Z,11.97
2018-07-11T18:32:49.467Z,18.33
2018-07-11T18:35:26.477Z,17.03
2018-07-11T18:37:59.903Z,13.27
2018-07-11T18:40:30.845Z,13.10
2018-07-11T18:45:12.268Z,16.57
2018-07-11T18:48:06.828Z,15.90
2018-07-11T18:50:43.086Z,18.00
2018-07-11T18:53:20.798Z,18.77
2018-07-11T18:55:54.929Z,18.40
2018-07-11T18:59:39.950Z,19.37
2018-07-11T19:02:14.143Z,19.53
2018-07-11T19:04:53.919Z,19.87
2018-07-11T19:07:38.677Z,22.20
2018-07-11T19:10:06.960Z,19.70
2018-07-11T19:12:43.025Z,20.10
2018-07-11T19:15:17.244Z,20.87
2018-07-11T19:17:53.800Z,20.47
2018-07-11T19:20:32.322Z,20.60
2018-07-11T19:23:08.156Z,21.33
2018-07-11T19:25:51.157Z,23.17
2018-07-11T19:28:33.679Z,21.17
2018-07-11T19:31:09.532Z,21.03
2018-07-11T19:34:48.590Z,21.27
2018-07-11T19:37:52.207Z,22.17
2018-07-11T19:40:36.731Z,22.70
2018-07-11T19:44:11.758Z,23.00
2018-07-11T19:46:51.043Z,22.70
2018-07-11T19:49:30.549Z,22.43
2018-07-11T19:53:12.579Z,23.73
2018-07-11T19:55:55.182Z,21.40
2018-07-11T19:58:23.340Z,21.90
2018-07-11T20:00:51.535Z,21.37
2018-07-11T20:03:19.636Z,22.83
2018-07-11T20:05:53.347Z,21.23
2018-07-11T20:08:15.831Z,23.50
2018-07-11T20:10:44.066Z,23.27
2018-07-11T20:13:12.214Z,23.87
2018-07-11T20:15:40.171Z,22.30
2018-07-11T20:18:08.328Z,21.47
2018-07-11T20:20:36.505Z,20.27
2018-07-11T20:23:04.650Z,20.30
2018-07-11T20:25:32.779Z,19.93
2018-07-11T20:28:00.870Z,20.53
2018-07-11T20:30:29.036Z,20.23
2018-07-11T20:32:57.158Z,21.20
2018-07-11T20:35:25.283Z,21.40
2018-07-11T20:37:53.442Z,21.83
2018-07-11T20:40:21.338Z,20.80
2018-07-11T20:42:49.674Z,19.80
2018-07-11T20:45:17.807Z,21.07
2018-07-11T20:47:45.947Z,19.97
2018-07-11T20:50:14.092Z,20.67
2018-07-11T20:52:42.238Z,22.30
2018-07-11T20:55:10.533Z,20.67
2018-07-11T20:57:38.704Z,20.93
2018-07-11T21:00:18.216Z,21.57
2018-07-11T21:02:59.180Z,22.77
2018-07-11T21:06:14.196Z,21.57
2018-07-11T21:10:56.927Z,19.90
2018-07-11T21:15:41.857Z,19.73
2018-07-11T21:18:22.690Z,18.57
2018-07-11T21:20:50.882Z,20.87
2018-07-11T21:23:19.035Z,19.83
2018-07-11T21:25:46.990Z,20.60
2018-07-11T21:28:15.151Z,19.07
2018-07-11T21:30:43.287Z,18.87
2018-07-11T21:33:11.431Z,19.83
2018-07-11T21:35:39.378Z,20.30
2018-07-11T21:38:07.525Z,21.03
2018-07-11T21:40:35.736Z,18.37
2018-07-11T21:43:03.834Z,18.60
2018-07-11T21:45:31.980Z,18.37
2018-07-11T21:48:00.116Z,20.20
2018-07-11T21:50:28.264Z,18.80
2018-07-11T21:52:56.398Z,18.63
2018-07-11T21:55:24.875Z,17.87
2018-07-11T21:57:53.003Z,17.70
2018-07-11T22:00:33.714Z,17.53
2018-07-11T22:03:01.855Z,18.60
2018-07-11T22:05:30.779Z,19.33
2018-07-11T22:07:58.679Z,18.50
2018-07-11T22:10:27.131Z,17.67
2018-07-11T22:12:55.027Z,20.23
2018-07-11T22:15:23.163Z,22.50
2018-07-11T22:18:02.899Z,19.27
2018-07-11T22:20:30.674Z,20.83
2018-07-11T22:22:57.878Z,20.67
2018-07-11T22:25:25.048Z,21.20
2018-07-11T22:27:52.214Z,21.93
2018-07-11T22:30:19.397Z,24.87
2018-07-11T22:32:46.830Z,24.60
2018-07-11T22:35:14.188Z,26.33
2018-07-11T22:37:41.537Z,24.37
2018-07-11T22:40:08.895Z,25.00
2018-07-11T22:42:36.088Z,23.37
2018-07-11T22:45:03.268Z,24.73
2018-07-11T22:47:30.536Z,26.07
2018-07-11T22:49:58.827Z,25.40
2018-07-11T22:52:27.516Z,26.77
2018-07-11T22:54:54.980Z,27.67
2018-07-11T22:57:22.424Z,28.10
2018-07-11T22:59:50.283Z,28.97
2018-07-11T23:02:17.636Z,31.60
2018-07-11T23:04:44.821Z,30.50
2018-07-11T23:07:11.984Z,30.70
2018-07-11T23:09:39.172Z,30.20
2018-07-11T23:12:06.638Z,31.27
2018-07-11T23:14:34.534Z,29.33
2018-07-11T23:17:02.831Z,32.00
2018-07-11T23:19:30.162Z,30.47
2018-07-11T23:21:58.025Z,30.23
2018-07-11T23:24:25.604Z,30.77
2018-07-11T23:26:52.932Z,28.83
2018-07-11T23:29:20.336Z,29.87
2018-07-11T23:31:47.652Z,32.37
2018-07-11T23:34:15.098Z,29.90
2018-07-11T23:36:42.282Z,29.97
2018-07-11T23:39:10.611Z,30.23
2018-07-11T23:41:37.795Z,28.60
2018-07-11T23:44:05.452Z,29.93
2018-07-11T23:46:32.639Z,28.73
2018-07-11T23:48:59.802Z,28.10
2018-07-11T23:51:26.990Z,26.37
2018-07-11T23:53:54.150Z,24.27
2018-07-11T23:56:21.338Z,22.40
2018-07-11T23:58:48.515Z,25.60
